createdAt,value
2023-01-12T00:03:06.125Z,0
2023-01-12T00:08:10.242Z,0
2023-01-12T00:13:14.437Z,0
2023-01-12T00:18:18.619Z,0
2023-01-12T00:23:22.753Z,0
2023-01-12T00:28:26.946Z,0
2023-01-12T00:33:31.097Z,0
2023-01-12T00:38:35.241Z,0
2023-01-12T00:43:39.397Z,0
2023-01-12T00:48:43.546Z,0
2023-01-12T00:53:47.714Z,0
2023-01-12T00:58:51.883Z,0
2023-01-12T01:03:56.064Z,0
2023-01-12T01:08:58.319Z,0
2023-01-12T01:14:02.488Z,0
2023-01-12T01:19:06.644Z,0
2023-01-12T01:24:08.894Z,0
2023-01-12T01:29:13.084Z,0
2023-01-12T01:34:17.225Z,0
2023-01-12T01:39:21.413Z,0
2023-01-12T01:44:25.575Z,0
2023-01-12T01:49:29.755Z,0
2023-01-12T01:54:33.864Z,0
2023-01-12T01:59:38.046Z,0
2023-01-12T02:04:42.227Z,0
2023-01-12T02:09:46.389Z,0
2023-01-12T02:14:52.243Z,0
2023-01-12T02:19:54.678Z,0
2023-01-12T02:24:58.833Z,0
2023-01-12T02:30:03.013Z,0
2023-01-12T02:35:07.168Z,0
2023-01-12T02:40:11.360Z,0
2023-01-12T02:45:15.544Z,0
2023-01-12T02:50:19.680Z,0
2023-01-12T02:55:23.808Z,0
2023-01-12T03:00:28.048Z,0
2023-01-12T03:05:32.183Z,0
2023-01-12T03:10:34.426Z,0
2023-01-12T03:15:38.640Z,0
2023-01-12T03:20:40.856Z,0
2023-01-12T03:25:45.052Z,0
2023-01-12T03:30:49.195Z,0
2023-01-12T03:35:53.341Z,0
2023-01-12T03:40:57.525Z,0
2023-01-12T03:46:01.673Z,0
2023-01-12T03:51:05.836Z,0
2023-01-12T03:56:09.992Z,0
2023-01-12T04:01:14.247Z,0
2023-01-12T04:06:18.312Z,0
2023-01-12T04:11:22.472Z,0
2023-01-12T04:16:26.670Z,0
2023-01-12T04:21:30.794Z,0
2023-01-12T04:26:34.979Z,0
2023-01-12T04:31:39.179Z,0
2023-01-12T04:36:43.289Z,0
2023-01-12T04:41:47.436Z,0
2023-01-12T04:46:51.616Z,0
2023-01-12T04:51:55.769Z,0
2023-01-12T04:56:59.934Z,0
2023-01-12T05:02:04.117Z,0
2023-01-12T05:07:06.343Z,0
2023-01-12T05:12:10.538Z,0
2023-01-12T05:17:12.811Z,0
2023-01-12T05:22:16.940Z,0
2023-01-12T05:27:21.141Z,0
2023-01-12T05:32:25.301Z,0
2023-01-12T05:37:29.456Z,0
2023-01-12T05:42:33.651Z,0
2023-01-12T05:47:37.789Z,0
2023-01-12T05:52:41.977Z,0
2023-01-12T05:57:46.089Z,0
2023-01-12T06:02:50.263Z,0
2023-01-12T06:07:54.458Z,0
2023-01-12T06:12:58.569Z,0
2023-01-12T06:18:02.760Z,0
2023-01-12T06:23:06.927Z,0
2023-01-12T06:28:11.053Z,0
2023-01-12T06:33:15.260Z,0
2023-01-12T06:38:19.385Z,0
2023-01-12T06:43:23.516Z,0
2023-01-12T06:48:27.696Z,0
2023-01-12T06:53:31.887Z,0
2023-01-12T06:58:36.036Z,0
2023-01-12T07:03:38.316Z,0
2023-01-12T07:08:42.498Z,0
2023-01-12T07:13:46.651Z,0
2023-01-12T07:18:49.058Z,2
2023-01-12T07:23:53.065Z,5
2023-01-12T07:28:57.260Z,15
2023-01-12T07:34:01.397Z,22
2023-01-12T07:39:05.580Z,39
2023-01-12T07:44:09.737Z,47
2023-01-12T07:49:13.886Z,61
2023-01-12T07:54:16.180Z,81
2023-01-12T07:59:20.322Z,100
2023-01-12T08:04:24.490Z,92
2023-01-12T08:09:28.669Z,127
2023-01-12T08:14:32.938Z,130
2023-01-12T08:19:36.979Z,189
2023-01-12T08:24:41.136Z,235
2023-01-12T08:29:45.342Z,170
2023-01-12T08:34:49.445Z,213
2023-01-12T08:39:53.591Z,285
2023-01-12T08:44:57.829Z,309
2023-01-12T08:50:01.930Z,295
2023-01-12T08:55:06.098Z,278
2023-01-12T09:00:10.248Z,184
2023-01-12T09:05:12.532Z,440
2023-01-12T09:10:16.682Z,433
2023-01-12T09:15:18.983Z,410
2023-01-12T09:20:23.157Z,546
2023-01-12T09:25:27.306Z,796
2023-01-12T09:30:31.475Z,927
2023-01-12T09:35:35.604Z,1045
2023-01-12T09:40:39.755Z,1262
2023-01-12T09:45:43.988Z,915
2023-01-12T09:50:48.119Z,1084
2023-01-12T09:55:52.245Z,1704
2023-01-12T10:00:56.457Z,1102
2023-01-12T10:06:00.674Z,1105
2023-01-12T10:11:04.758Z,1088
2023-01-12T10:16:08.928Z,1333
2023-01-12T10:21:13.066Z,1137
2023-01-12T10:26:17.201Z,917
2023-01-12T10:31:21.432Z,654
2023-01-12T10:36:25.506Z,935
2023-01-12T10:41:29.698Z,870
2023-01-12T10:46:33.874Z,1220
2023-01-12T10:51:38.023Z,1340
2023-01-12T10:56:42.201Z,1738
2023-01-12T11:01:44.668Z,1784
2023-01-12T11:06:48.611Z,2117
2023-01-12T11:11:52.809Z,2097
2023-01-12T11:16:57.033Z,2203
2023-01-12T11:22:01.121Z,2701
2023-01-12T11:27:05.283Z,1850
2023-01-12T11:37:13.625Z,1549
2023-01-12T11:42:17.733Z,1249
2023-01-12T11:47:21.930Z,1480
2023-01-12T11:52:26.077Z,1035
2023-01-12T11:57:30.202Z,1659
2023-01-12T12:02:34.562Z,1262
2023-01-12T12:07:38.581Z,775
2023-01-12T12:12:42.723Z,927
2023-01-12T12:17:46.904Z,1086
2023-01-12T12:27:55.185Z,1045
2023-01-12T12:32:57.445Z,1465
2023-01-12T12:38:08.636Z,1327
2023-01-12T12:43:19.809Z,1358
2023-01-12T12:48:30.999Z,1449
2023-01-12T12:53:42.284Z,1550
2023-01-12T12:58:53.326Z,1630
2023-01-12T13:04:04.481Z,1340
2023-01-12T13:09:06.760Z,1560
2023-01-12T13:14:10.941Z,1322
2023-01-12T13:24:19.147Z,1615
2023-01-12T13:29:19.613Z,1878
2023-01-12T13:34:23.764Z,1315
2023-01-12T13:39:27.955Z,1373
2023-01-12T13:44:32.065Z,1529
2023-01-12T13:49:36.274Z,894
2023-01-12T13:54:40.443Z,1623
2023-01-12T13:59:44.579Z,996
2023-01-12T14:04:48.763Z,1289
2023-01-12T14:09:52.920Z,701
2023-01-12T14:14:57.079Z,641
2023-01-12T14:20:01.230Z,533
2023-01-12T14:25:05.456Z,522
2023-01-12T14:30:09.528Z,527
2023-01-12T14:35:13.715Z,315
2023-01-12T14:40:17.850Z,340
2023-01-12T14:45:22.017Z,295
2023-01-12T14:50:26.220Z,310
2023-01-12T14:55:30.363Z,267
2023-01-12T15:00:34.563Z,208
2023-01-12T15:05:39.056Z,190
2023-01-12T15:10:42.849Z,144
2023-01-12T15:15:45.117Z,143
2023-01-12T15:20:49.289Z,131
2023-01-12T15:25:53.441Z,98
2023-01-12T15:30:57.642Z,85
2023-01-12T15:36:01.778Z,60
2023-01-12T15:41:05.929Z,42
2023-01-12T15:46:10.198Z,31
2023-01-12T15:51:14.272Z,20
2023-01-12T15:56:18.381Z,15
2023-01-12T16:01:22.707Z,7
2023-01-12T16:06:26.736Z,3
2023-01-12T16:11:30.904Z,1
2023-01-12T16:16:35.120Z,0
2023-01-12T16:21:39.516Z,0
2023-01-12T16:26:43.360Z,0
2023-01-12T16:31:47.577Z,0
2023-01-12T16:36:51.724Z,0
2023-01-12T16:41:55.868Z,0
2023-01-12T16:47:00.025Z,0
2023-01-12T16:52:04.197Z,0
2023-01-12T16:57:08.316Z,0
2023-01-12T17:02:10.871Z,0
2023-01-12T17:07:14.820Z,0
2023-01-12T17:12:17.136Z,0
2023-01-12T17:17:21.206Z,0
2023-01-12T17:22:25.378Z,0
2023-01-12T17:27:27.637Z,0
2023-01-12T17:32:31.817Z,0
2023-01-12T17:37:35.946Z,0
2023-01-12T17:42:40.148Z,0
2023-01-12T17:47:44.295Z,0
2023-01-12T17:52:48.430Z,0
2023-01-12T17:57:52.619Z,0
2023-01-12T18:02:56.797Z,0
2023-01-12T18:08:00.907Z,0
2023-01-12T18:18:09.221Z,0
2023-01-12T18:23:13.411Z,0
2023-01-12T18:28:17.610Z,0
2023-01-12T18:33:21.716Z,0
2023-01-12T18:38:25.934Z,0
2023-01-12T18:43:30.062Z,0
2023-01-12T18:48:34.202Z,0
2023-01-12T18:53:39.087Z,0
2023-01-12T18:58:42.541Z,0
2023-01-12T19:03:46.693Z,0
2023-01-12T19:08:50.881Z,0
2023-01-12T19:13:55.037Z,0
2023-01-12T19:18:57.278Z,0
2023-01-12T19:24:01.446Z,0
2023-01-12T19:29:05.622Z,0
2023-01-12T19:34:09.792Z,0
2023-01-12T19:39:13.945Z,0
2023-01-12T19:49:22.282Z,0
2023-01-12T19:54:26.413Z,0
2023-01-12T19:59:30.624Z,0
2023-01-12T20:04:34.776Z,0
2023-01-12T20:09:38.918Z,0
2023-01-12T20:14:43.051Z,0
2023-01-12T20:19:47.239Z,0
2023-01-12T20:24:51.391Z,0
2023-01-12T20:29:55.545Z,0
2023-01-12T20:34:59.703Z,0
2023-01-12T20:40:03.848Z,0
2023-01-12T20:45:08.028Z,0
2023-01-12T20:50:12.204Z,0
2023-01-12T20:55:16.410Z,0
2023-01-12T21:00:20.532Z,0
2023-01-12T21:05:24.736Z,0
2023-01-12T21:10:26.953Z,0
2023-01-12T21:15:31.130Z,0
2023-01-12T21:20:33.398Z,0
2023-01-12T21:25:37.538Z,0
2023-01-12T21:30:41.725Z,0
2023-01-12T21:35:45.858Z,0
2023-01-12T21:40:50.032Z,0
2023-01-12T21:45:54.372Z,0
2023-01-12T21:50:58.406Z,0
2023-01-12T21:56:02.551Z,0
2023-01-12T22:01:06.829Z,0
2023-01-12T22:06:10.891Z,0
2023-01-12T22:11:15.003Z,0
2023-01-12T22:16:19.247Z,0
2023-01-12T22:21:23.363Z,0
2023-01-12T22:31:31.683Z,0
2023-01-12T22:36:35.817Z,0
2023-01-12T22:41:39.953Z,0
2023-01-12T22:46:44.136Z,0
2023-01-12T22:51:48.297Z,0
2023-01-12T22:56:52.433Z,0
2023-01-12T23:01:56.615Z,0
2023-01-12T23:07:00.771Z,0
2023-01-12T23:12:04.143Z,0
2023-01-12T23:17:08.336Z,0
2023-01-12T23:22:10.576Z,0
2023-01-12T23:27:14.756Z,0
2023-01-12T23:32:19.095Z,0
2023-01-12T23:37:23.061Z,0
2023-01-12T23:42:27.270Z,0
2023-01-12T23:47:31.400Z,0
2023-01-12T23:52:35.589Z,0
2023-01-12T23:57:39.700Z,0
